sensor_id;sensor_type;location;lat;lon;timestamp;temperature;humidity
49729;DHT22;35617;50.714;7.114;2022-09-27T00:01:08;12.30;99.90
49729;DHT22;35617;50.714;7.114;2022-09-27T00:03:34;12.30;99.90
49729;DHT22;35617;50.714;7.114;2022-09-27T00:06:24;12.30;99.90
49729;DHT22;35617;50.714;7.114;2022-09-27T00:08:50;12.30;99.90
49729;DHT22;35617;50.714;7.114;2022-09-27T00:11:28;12.20;99.90
49729;DHT22;35617;50.714;7.114;2022-09-27T00:13:55;12.20;99.90
49729;DHT22;35617;50.714;7.114;2022-09-27T00:16:23;12.20;99.90
49729;DHT22;35617;50.714;7.114;2022-09-27T00:18:49;12.10;99.90
49729;DHT22;35617;50.714;7.114;2022-09-27T00:21:15;11.90;99.90
49729;DHT22;35617;50.714;7.114;2022-09-27T00:23:41;11.80;99.90
49729;DHT22;35617;50.714;7.114;2022-09-27T00:26:09;11.60;99.90
49729;DHT22;35617;50.714;7.114;2022-09-27T00:28:35;11.50;99.90
49729;DHT22;35617;50.714;7.114;2022-09-27T00:31:01;11.40;99.90
49729;DHT22;35617;50.714;7.114;2022-09-27T00:33:27;11.30;99.90
49729;DHT22;35617;50.714;7.114;2022-09-27T00:35:53;11.20;99.90
49729;DHT22;35617;50.714;7.114;2022-09-27T00:38:19;11.20;99.90
49729;DHT22;35617;50.714;7.114;2022-09-27T00:40:44;11.10;99.90
49729;DHT22;35617;50.714;7.114;2022-09-27T00:43:19;11.10;99.90
49729;DHT22;35617;50.714;7.114;2022-09-27T00:46:00;11.10;99.90
49729;DHT22;35617;50.714;7.114;2022-09-27T00:48:30;11.00;99.90
49729;DHT22;35617;50.714;7.114;2022-09-27T00:51:00;11.00;99.90
49729;DHT22;35617;50.714;7.114;2022-09-27T00:53:52;10.90;99.90
49729;DHT22;35617;50.714;7.114;2022-09-27T00:56:19;10.90;99.90
49729;DHT22;35617;50.714;7.114;2022-09-27T00:58:54;10.90;99.90
49729;DHT22;35617;50.714;7.114;2022-09-27T01:01:21;10.90;99.90
49729;DHT22;35617;50.714;7.114;2022-09-27T01:04:09;10.90;99.90
49729;DHT22;35617;50.714;7.114;2022-09-27T01:06:35;10.90;99.90
49729;DHT22;35617;50.714;7.114;2022-09-27T01:09:02;10.90;99.90
49729;DHT22;35617;50.714;7.114;2022-09-27T01:11:47;10.90;99.90
49729;DHT22;35617;50.714;7.114;2022-09-27T01:17:23;10.90;99.90
49729;DHT22;35617;50.714;7.114;2022-09-27T01:20:18;10.90;99.90
49729;DHT22;35617;50.714;7.114;2022-09-27T01:23:10;10.80;99.90
49729;DHT22;35617;50.714;7.114;2022-09-27T01:30:47;10.80;99.90
49729;DHT22;35617;50.714;7.114;2022-09-27T01:41:47;10.80;99.90
49729;DHT22;35617;50.714;7.114;2022-09-27T01:47:46;10.70;99.90
49729;DHT22;35617;50.714;7.114;2022-09-27T01:50:18;10.70;99.90
49729;DHT22;35617;50.714;7.114;2022-09-27T01:52:49;10.80;99.90
49729;DHT22;35617;50.714;7.114;2022-09-27T01:55:18;10.80;99.90
49729;DHT22;35617;50.714;7.114;2022-09-27T01:57:51;10.80;99.90
49729;DHT22;35617;50.714;7.114;2022-09-27T02:00:18;10.80;99.90
49729;DHT22;35617;50.714;7.114;2022-09-27T02:02:48;10.80;99.90
49729;DHT22;35617;50.714;7.114;2022-09-27T02:05:16;10.80;99.90
49729;DHT22;35617;50.714;7.114;2022-09-27T02:07:50;10.70;99.90
49729;DHT22;35617;50.714;7.114;2022-09-27T02:10:23;10.70;99.90
49729;DHT22;35617;50.714;7.114;2022-09-27T02:12:59;10.70;99.90
49729;DHT22;35617;50.714;7.114;2022-09-27T02:15:29;10.70;99.90
49729;DHT22;35617;50.714;7.114;2022-09-27T02:18:09;10.70;99.90
49729;DHT22;35617;50.714;7.114;2022-09-27T02:20:40;10.70;99.90
49729;DHT22;35617;50.714;7.114;2022-09-27T02:23:23;10.70;99.90
49729;DHT22;35617;50.714;7.114;2022-09-27T02:25:56;10.70;99.90
49729;DHT22;35617;50.714;7.114;2022-09-27T02:28:32;10.70;99.90
49729;DHT22;35617;50.714;7.114;2022-09-27T02:31:00;10.70;99.90
49729;DHT22;35617;50.714;7.114;2022-09-27T02:33:30;10.60;99.90
49729;DHT22;35617;50.714;7.114;2022-09-27T02:35:56;10.70;99.90
49729;DHT22;35617;50.714;7.114;2022-09-27T02:38:21;10.60;99.90
49729;DHT22;35617;50.714;7.114;2022-09-27T02:40:48;10.70;99.90
49729;DHT22;35617;50.714;7.114;2022-09-27T02:43:16;10.70;99.90
49729;DHT22;35617;50.714;7.114;2022-09-27T02:48:48;10.70;99.90
49729;DHT22;35617;50.714;7.114;2022-09-27T02:51:41;10.70;99.90
49729;DHT22;35617;50.714;7.114;2022-09-27T03:05:25;10.60;99.90
49729;DHT22;35617;50.714;7.114;2022-09-27T03:07:52;10.60;99.90
49729;DHT22;35617;50.714;7.114;2022-09-27T03:10:21;10.60;99.90
49729;DHT22;35617;50.714;7.114;2022-09-27T03:12:48;10.70;99.90
49729;DHT22;35617;50.714;7.114;2022-09-27T03:15:13;10.60;99.90
49729;DHT22;35617;50.714;7.114;2022-09-27T03:17:39;10.60;99.90
49729;DHT22;35617;50.714;7.114;2022-09-27T03:20:05;10.60;99.90
49729;DHT22;35617;50.714;7.114;2022-09-27T03:22:31;10.60;99.90
49729;DHT22;35617;50.714;7.114;2022-09-27T03:24:57;10.60;99.90
49729;DHT22;35617;50.714;7.114;2022-09-27T03:27:23;10.60;99.90
49729;DHT22;35617;50.714;7.114;2022-09-27T03:29:48;10.60;99.90
49729;DHT22;35617;50.714;7.114;2022-09-27T03:32:14;10.60;99.90
49729;DHT22;35617;50.714;7.114;2022-09-27T03:34:40;10.60;99.90
49729;DHT22;35617;50.714;7.114;2022-09-27T03:37:05;10.60;99.90
49729;DHT22;35617;50.714;7.114;2022-09-27T03:39:33;10.60;99.90
49729;DHT22;35617;50.714;7.114;2022-09-27T03:41:58;10.60;99.90
49729;DHT22;35617;50.714;7.114;2022-09-27T03:44:24;10.60;99.90
49729;DHT22;35617;50.714;7.114;2022-09-27T03:46:50;10.60;99.90
49729;DHT22;35617;50.714;7.114;2022-09-27T03:49:16;10.50;99.90
49729;DHT22;35617;50.714;7.114;2022-09-27T03:51:42;10.50;99.90
49729;DHT22;35617;50.714;7.114;2022-09-27T03:54:08;10.50;99.90
49729;DHT22;35617;50.714;7.114;2022-09-27T03:56:34;10.60;99.90
49729;DHT22;35617;50.714;7.114;2022-09-27T03:58:59;10.60;99.90
49729;DHT22;35617;50.714;7.114;2022-09-27T04:01:25;10.50;99.90
49729;DHT22;35617;50.714;7.114;2022-09-27T04:03:52;10.60;99.90
49729;DHT22;35617;50.714;7.114;2022-09-27T04:06:18;10.50;99.90
49729;DHT22;35617;50.714;7.114;2022-09-27T04:08:44;10.50;99.90
49729;DHT22;35617;50.714;7.114;2022-09-27T04:11:10;10.50;99.90
49729;DHT22;35617;50.714;7.114;2022-09-27T04:13:36;10.50;99.90
49729;DHT22;35617;50.714;7.114;2022-09-27T04:16:01;10.50;99.90
49729;DHT22;35617;50.714;7.114;2022-09-27T04:18:27;10.50;99.90
49729;DHT22;35617;50.714;7.114;2022-09-27T04:20:53;10.50;99.90
49729;DHT22;35617;50.714;7.114;2022-09-27T04:23:19;10.50;99.90
49729;DHT22;35617;50.714;7.114;2022-09-27T04:25:45;10.40;99.90
49729;DHT22;35617;50.714;7.114;2022-09-27T04:28:11;10.40;99.90
49729;DHT22;35617;50.714;7.114;2022-09-27T04:30:37;10.30;99.90
49729;DHT22;35617;50.714;7.114;2022-09-27T04:33:03;10.30;99.90
49729;DHT22;35617;50.714;7.114;2022-09-27T04:35:29;10.20;99.90
49729;DHT22;35617;50.714;7.114;2022-09-27T04:38:13;10.20;99.90
49729;DHT22;35617;50.714;7.114;2022-09-27T04:40:38;10.10;99.90
49729;DHT22;35617;50.714;7.114;2022-09-27T04:43:04;10.10;99.90
49729;DHT22;35617;50.714;7.114;2022-09-27T04:45:30;10.00;99.90
49729;DHT22;35617;50.714;7.114;2022-09-27T04:47:56;10.00;99.90
49729;DHT22;35617;50.714;7.114;2022-09-27T04:50:22;10.00;99.90
49729;DHT22;35617;50.714;7.114;2022-09-27T04:52:52;10.00;99.90
49729;DHT22;35617;50.714;7.114;2022-09-27T04:55:21;10.00;99.90
49729;DHT22;35617;50.714;7.114;2022-09-27T04:57:47;10.00;99.90
49729;DHT22;35617;50.714;7.114;2022-09-27T05:00:14;9.90;99.90
49729;DHT22;35617;50.714;7.114;2022-09-27T05:02:44;9.90;99.90
49729;DHT22;35617;50.714;7.114;2022-09-27T05:05:10;9.90;99.90
49729;DHT22;35617;50.714;7.114;2022-09-27T05:07:37;9.90;99.90
49729;DHT22;35617;50.714;7.114;2022-09-27T05:10:03;9.90;99.90
49729;DHT22;35617;50.714;7.114;2022-09-27T05:12:29;9.80;99.90
49729;DHT22;35617;50.714;7.114;2022-09-27T05:14:54;9.80;99.90
49729;DHT22;35617;50.714;7.114;2022-09-27T05:17:20;9.80;99.90
49729;DHT22;35617;50.714;7.114;2022-09-27T05:19:47;9.80;99.90
49729;DHT22;35617;50.714;7.114;2022-09-27T05:22:13;9.80;99.90
49729;DHT22;35617;50.714;7.114;2022-09-27T05:24:39;9.80;99.90
49729;DHT22;35617;50.714;7.114;2022-09-27T05:27:07;9.80;99.90
49729;DHT22;35617;50.714;7.114;2022-09-27T05:29:33;9.90;99.90
49729;DHT22;35617;50.714;7.114;2022-09-27T05:32:03;9.90;99.90
49729;DHT22;35617;50.714;7.114;2022-09-27T05:34:28;9.90;99.90
49729;DHT22;35617;50.714;7.114;2022-09-27T05:36:56;9.90;99.90
49729;DHT22;35617;50.714;7.114;2022-09-27T05:39:22;9.90;99.90
49729;DHT22;35617;50.714;7.114;2022-09-27T05:41:48;9.80;99.90
49729;DHT22;35617;50.714;7.114;2022-09-27T05:44:15;9.80;99.90
49729;DHT22;35617;50.714;7.114;2022-09-27T05:46:40;9.90;99.90
49729;DHT22;35617;50.714;7.114;2022-09-27T05:49:06;9.90;99.90
49729;DHT22;35617;50.714;7.114;2022-09-27T05:51:32;9.90;99.90
49729;DHT22;35617;50.714;7.114;2022-09-27T05:53:58;9.90;99.90
49729;DHT22;35617;50.714;7.114;2022-09-27T05:56:23;9.90;99.90
49729;DHT22;35617;50.714;7.114;2022-09-27T05:58:50;10.00;99.90
49729;DHT22;35617;50.714;7.114;2022-09-27T06:01:16;10.00;99.90
49729;DHT22;35617;50.714;7.114;2022-09-27T06:03:42;10.00;99.90
49729;DHT22;35617;50.714;7.114;2022-09-27T06:06:09;9.90;99.90
49729;DHT22;35617;50.714;7.114;2022-09-27T06:08:36;9.90;99.90
49729;DHT22;35617;50.714;7.114;2022-09-27T06:11:08;9.90;99.90
49729;DHT22;35617;50.714;7.114;2022-09-27T06:13:34;9.90;99.90
49729;DHT22;35617;50.714;7.114;2022-09-27T06:16:01;9.90;99.90
49729;DHT22;35617;50.714;7.114;2022-09-27T06:18:27;9.90;99.90
49729;DHT22;35617;50.714;7.114;2022-09-27T06:20:53;9.90;99.90
49729;DHT22;35617;50.714;7.114;2022-09-27T06:23:21;9.90;99.90
49729;DHT22;35617;50.714;7.114;2022-09-27T06:25:50;9.90;99.90
49729;DHT22;35617;50.714;7.114;2022-09-27T06:28:16;10.00;99.90
49729;DHT22;35617;50.714;7.114;2022-09-27T06:30:44;10.00;99.90
49729;DHT22;35617;50.714;7.114;2022-09-27T06:33:12;10.00;99.90
49729;DHT22;35617;50.714;7.114;2022-09-27T06:35:39;10.20;99.90
49729;DHT22;35617;50.714;7.114;2022-09-27T06:38:07;10.20;99.90
49729;DHT22;35617;50.714;7.114;2022-09-27T06:40:35;10.30;99.90
49729;DHT22;35617;50.714;7.114;2022-09-27T06:43:05;10.40;99.90
49729;DHT22;35617;50.714;7.114;2022-09-27T06:45:33;10.40;99.90
49729;DHT22;35617;50.714;7.114;2022-09-27T06:48:00;10.50;99.90
49729;DHT22;35617;50.714;7.114;2022-09-27T06:50:31;10.60;99.90
49729;DHT22;35617;50.714;7.114;2022-09-27T06:52:57;10.60;99.90
49729;DHT22;35617;50.714;7.114;2022-09-27T06:55:23;10.70;99.90
49729;DHT22;35617;50.714;7.114;2022-09-27T06:57:56;10.90;99.90
49729;DHT22;35617;50.714;7.114;2022-09-27T07:00:41;10.90;99.90
49729;DHT22;35617;50.714;7.114;2022-09-27T07:03:09;11.00;99.90
49729;DHT22;35617;50.714;7.114;2022-09-27T07:05:36;11.10;99.90
49729;DHT22;35617;50.714;7.114;2022-09-27T07:08:03;11.20;99.90
49729;DHT22;35617;50.714;7.114;2022-09-27T07:10:33;11.20;99.90
49729;DHT22;35617;50.714;7.114;2022-09-27T07:13:03;11.30;99.90
49729;DHT22;35617;50.714;7.114;2022-09-27T07:15:30;11.40;99.90
49729;DHT22;35617;50.714;7.114;2022-09-27T07:18:00;11.40;99.90
49729;DHT22;35617;50.714;7.114;2022-09-27T07:20:25;11.50;99.90
49729;DHT22;35617;50.714;7.114;2022-09-27T07:22:51;11.50;99.90
49729;DHT22;35617;50.714;7.114;2022-09-27T07:25:18;11.50;99.90
49729;DHT22;35617;50.714;7.114;2022-09-27T07:27:43;11.60;99.90
49729;DHT22;35617;50.714;7.114;2022-09-27T07:30:10;11.60;99.90
49729;DHT22;35617;50.714;7.114;2022-09-27T07:32:37;11.60;99.90
49729;DHT22;35617;50.714;7.114;2022-09-27T07:35:03;11.60;99.90
49729;DHT22;35617;50.714;7.114;2022-09-27T07:37:31;11.60;99.90
49729;DHT22;35617;50.714;7.114;2022-09-27T07:39:58;11.70;99.90
49729;DHT22;35617;50.714;7.114;2022-09-27T07:42:23;11.80;99.90
49729;DHT22;35617;50.714;7.114;2022-09-27T07:44:49;11.90;99.90
49729;DHT22;35617;50.714;7.114;2022-09-27T07:47:14;11.90;99.90
49729;DHT22;35617;50.714;7.114;2022-09-27T07:49:41;12.00;99.90
49729;DHT22;35617;50.714;7.114;2022-09-27T07:52:07;12.00;99.90
49729;DHT22;35617;50.714;7.114;2022-09-27T07:54:32;12.10;99.90
49729;DHT22;35617;50.714;7.114;2022-09-27T07:56:58;12.10;99.90
49729;DHT22;35617;50.714;7.114;2022-09-27T07:59:23;12.20;99.90
49729;DHT22;35617;50.714;7.114;2022-09-27T08:01:49;12.20;99.90
49729;DHT22;35617;50.714;7.114;2022-09-27T08:04:14;12.30;99.90
49729;DHT22;35617;50.714;7.114;2022-09-27T08:06:40;12.30;99.90
49729;DHT22;35617;50.714;7.114;2022-09-27T08:09:07;12.30;99.90
49729;DHT22;35617;50.714;7.114;2022-09-27T08:11:34;12.40;99.90
49729;DHT22;35617;50.714;7.114;2022-09-27T08:14:01;12.60;99.90
49729;DHT22;35617;50.714;7.114;2022-09-27T08:16:29;12.60;99.90
49729;DHT22;35617;50.714;7.114;2022-09-27T08:18:54;12.70;99.90
49729;DHT22;35617;50.714;7.114;2022-09-27T08:21:20;12.70;99.90
49729;DHT22;35617;50.714;7.114;2022-09-27T08:23:46;12.70;99.90
49729;DHT22;35617;50.714;7.114;2022-09-27T08:26:11;12.80;99.90
49729;DHT22;35617;50.714;7.114;2022-09-27T08:28:37;12.90;99.90
49729;DHT22;35617;50.714;7.114;2022-09-27T08:31:02;13.00;99.90
49729;DHT22;35617;50.714;7.114;2022-09-27T08:33:28;13.20;99.90
49729;DHT22;35617;50.714;7.114;2022-09-27T08:35:54;13.30;99.90
49729;DHT22;35617;50.714;7.114;2022-09-27T08:38:20;13.30;99.90
49729;DHT22;35617;50.714;7.114;2022-09-27T08:40:54;13.30;99.90
49729;DHT22;35617;50.714;7.114;2022-09-27T08:46:52;13.20;99.70
49729;DHT22;35617;50.714;7.114;2022-09-27T08:52:38;13.10;99.40
49729;DHT22;35617;50.714;7.114;2022-09-27T08:57:56;13.20;99.80
49729;DHT22;35617;50.714;7.114;2022-09-27T09:00:22;13.20;99.90
49729;DHT22;35617;50.714;7.114;2022-09-27T09:02:48;13.30;99.90
49729;DHT22;35617;50.714;7.114;2022-09-27T09:05:29;13.40;99.90
49729;DHT22;35617;50.714;7.114;2022-09-27T09:08:13;13.40;99.80
49729;DHT22;35617;50.714;7.114;2022-09-27T09:13:36;13.30;99.10
49729;DHT22;35617;50.714;7.114;2022-09-27T09:27:05;13.60;99.90
49729;DHT22;35617;50.714;7.114;2022-09-27T09:29:43;13.60;99.10
49729;DHT22;35617;50.714;7.114;2022-09-27T09:32:54;13.70;98.80
49729;DHT22;35617;50.714;7.114;2022-09-27T09:35:28;13.80;98.30
49729;DHT22;35617;50.714;7.114;2022-09-27T09:37:59;13.80;98.20
49729;DHT22;35617;50.714;7.114;2022-09-27T09:46:02;14.20;98.60
49729;DHT22;35617;50.714;7.114;2022-09-27T09:51:40;14.40;96.40
49729;DHT22;35617;50.714;7.114;2022-09-27T09:54:29;14.40;97.40
49729;DHT22;35617;50.714;7.114;2022-09-27T10:02:43;14.50;96.10
49729;DHT22;35617;50.714;7.114;2022-09-27T10:05:02;14.60;95.60
49729;DHT22;35617;50.714;7.114;2022-09-27T10:07:29;14.60;95.10
49729;DHT22;35617;50.714;7.114;2022-09-27T10:09:59;14.60;94.80
49729;DHT22;35617;50.714;7.114;2022-09-27T10:12:25;14.50;94.30
49729;DHT22;35617;50.714;7.114;2022-09-27T10:14:52;14.50;94.80
49729;DHT22;35617;50.714;7.114;2022-09-27T10:17:23;14.50;94.70
49729;DHT22;35617;50.714;7.114;2022-09-27T10:19:49;14.50;94.10
49729;DHT22;35617;50.714;7.114;2022-09-27T10:22:35;14.40;94.40
49729;DHT22;35617;50.714;7.114;2022-09-27T10:25:05;14.40;94.60
49729;DHT22;35617;50.714;7.114;2022-09-27T10:27:45;14.50;93.80
49729;DHT22;35617;50.714;7.114;2022-09-27T10:30:30;14.60;93.60
49729;DHT22;35617;50.714;7.114;2022-09-27T10:33:06;14.70;94.10
49729;DHT22;35617;50.714;7.114;2022-09-27T10:35:42;14.90;94.00
49729;DHT22;35617;50.714;7.114;2022-09-27T10:40:45;15.10;93.50
49729;DHT22;35617;50.714;7.114;2022-09-27T10:46:20;14.90;93.50
49729;DHT22;35617;50.714;7.114;2022-09-27T10:49:52;15.00;93.40
49729;DHT22;35617;50.714;7.114;2022-09-27T10:54:39;14.90;92.40
49729;DHT22;35617;50.714;7.114;2022-09-27T10:57:33;14.80;92.80
49729;DHT22;35617;50.714;7.114;2022-09-27T11:00:05;14.90;92.80
49729;DHT22;35617;50.714;7.114;2022-09-27T11:02:33;14.90;93.20
49729;DHT22;35617;50.714;7.114;2022-09-27T11:07:28;15.00;93.50
49729;DHT22;35617;50.714;7.114;2022-09-27T11:09:56;15.00;93.30
49729;DHT22;35617;50.714;7.114;2022-09-27T11:12:27;15.00;92.80
49729;DHT22;35617;50.714;7.114;2022-09-27T11:15:05;14.90;93.10
49729;DHT22;35617;50.714;7.114;2022-09-27T11:17:53;14.90;92.50
49729;DHT22;35617;50.714;7.114;2022-09-27T11:20:45;14.90;92.70
49729;DHT22;35617;50.714;7.114;2022-09-27T11:26:13;14.90;92.30
49729;DHT22;35617;50.714;7.114;2022-09-27T11:28:57;15.00;92.60
49729;DHT22;35617;50.714;7.114;2022-09-27T11:31:46;15.00;91.80
49729;DHT22;35617;50.714;7.114;2022-09-27T11:42:54;15.00;91.50
49729;DHT22;35617;50.714;7.114;2022-09-27T11:54:13;15.10;92.80
49729;DHT22;35617;50.714;7.114;2022-09-27T11:56:49;15.10;93.00
49729;DHT22;35617;50.714;7.114;2022-09-27T12:10:15;15.40;91.10
49729;DHT22;35617;50.714;7.114;2022-09-27T12:12:43;15.40;90.90
49729;DHT22;35617;50.714;7.114;2022-09-27T12:15:23;15.30;90.70
49729;DHT22;35617;50.714;7.114;2022-09-27T12:17:53;15.30;91.40
49729;DHT22;35617;50.714;7.114;2022-09-27T12:20:26;15.40;91.10
49729;DHT22;35617;50.714;7.114;2022-09-27T12:23:00;15.50;91.00
49729;DHT22;35617;50.714;7.114;2022-09-27T12:25:32;15.50;90.90
49729;DHT22;35617;50.714;7.114;2022-09-27T12:28:52;15.50;90.60
49729;DHT22;35617;50.714;7.114;2022-09-27T12:30:56;15.50;90.80
49729;DHT22;35617;50.714;7.114;2022-09-27T12:33:50;15.60;90.90
49729;DHT22;35617;50.714;7.114;2022-09-27T12:36:20;15.80;90.70
49729;DHT22;35617;50.714;7.114;2022-09-27T12:41:30;15.80;90.10
49729;DHT22;35617;50.714;7.114;2022-09-27T12:43:59;15.80;90.00
49729;DHT22;35617;50.714;7.114;2022-09-27T12:49:16;15.80;90.00
49729;DHT22;35617;50.714;7.114;2022-09-27T12:52:07;15.80;89.10
49729;DHT22;35617;50.714;7.114;2022-09-27T13:00:07;15.70;89.20
49729;DHT22;35617;50.714;7.114;2022-09-27T13:08:17;15.50;89.70
49729;DHT22;35617;50.714;7.114;2022-09-27T13:13:37;15.60;89.10
49729;DHT22;35617;50.714;7.114;2022-09-27T13:16:05;15.70;90.00
49729;DHT22;35617;50.714;7.114;2022-09-27T13:21:08;15.90;88.60
49729;DHT22;35617;50.714;7.114;2022-09-27T13:26:41;16.00;87.70
49729;DHT22;35617;50.714;7.114;2022-09-27T13:29:21;16.00;86.30
49729;DHT22;35617;50.714;7.114;2022-09-27T13:34:39;15.90;88.10
49729;DHT22;35617;50.714;7.114;2022-09-27T13:45:37;15.30;90.10
49729;DHT22;35617;50.714;7.114;2022-09-27T13:49:13;15.10;90.80
49729;DHT22;35617;50.714;7.114;2022-09-27T13:51:38;14.90;91.20
49729;DHT22;35617;50.714;7.114;2022-09-27T13:54:34;14.60;93.60
49729;DHT22;35617;50.714;7.114;2022-09-27T13:56:53;14.40;95.30
49729;DHT22;35617;50.714;7.114;2022-09-27T13:59:38;14.20;97.20
49729;DHT22;35617;50.714;7.114;2022-09-27T14:04:43;13.80;99.10
49729;DHT22;35617;50.714;7.114;2022-09-27T14:07:14;13.80;99.20
49729;DHT22;35617;50.714;7.114;2022-09-27T14:09:44;13.70;98.80
49729;DHT22;35617;50.714;7.114;2022-09-27T14:12:16;13.60;98.90
49729;DHT22;35617;50.714;7.114;2022-09-27T14:14:47;13.60;98.10
49729;DHT22;35617;50.714;7.114;2022-09-27T14:17:14;13.70;98.30
49729;DHT22;35617;50.714;7.114;2022-09-27T14:19:41;13.70;97.00
49729;DHT22;35617;50.714;7.114;2022-09-27T14:22:13;13.80;96.40
49729;DHT22;35617;50.714;7.114;2022-09-27T14:27:14;13.90;96.60
49729;DHT22;35617;50.714;7.114;2022-09-27T14:29:53;14.10;96.80
49729;DHT22;35617;50.714;7.114;2022-09-27T14:32:29;14.40;96.20
49729;DHT22;35617;50.714;7.114;2022-09-27T14:35:33;14.50;96.10
49729;DHT22;35617;50.714;7.114;2022-09-27T14:38:20;14.50;95.40
49729;DHT22;35617;50.714;7.114;2022-09-27T14:40:57;14.60;95.00
49729;DHT22;35617;50.714;7.114;2022-09-27T14:43:22;14.60;94.40
49729;DHT22;35617;50.714;7.114;2022-09-27T14:45:50;14.60;94.50
49729;DHT22;35617;50.714;7.114;2022-09-27T14:48:29;14.60;94.40
49729;DHT22;35617;50.714;7.114;2022-09-27T14:51:18;14.50;93.40
49729;DHT22;35617;50.714;7.114;2022-09-27T14:53:47;14.50;93.40
49729;DHT22;35617;50.714;7.114;2022-09-27T14:56:18;14.40;93.90
49729;DHT22;35617;50.714;7.114;2022-09-27T14:58:48;14.40;94.00
49729;DHT22;35617;50.714;7.114;2022-09-27T15:01:17;14.50;94.30
49729;DHT22;35617;50.714;7.114;2022-09-27T15:03:45;14.50;94.60
49729;DHT22;35617;50.714;7.114;2022-09-27T15:06:11;14.60;94.20
49729;DHT22;35617;50.714;7.114;2022-09-27T15:08:37;14.50;93.10
49729;DHT22;35617;50.714;7.114;2022-09-27T15:11:04;14.50;93.70
49729;DHT22;35617;50.714;7.114;2022-09-27T15:13:32;14.60;93.70
49729;DHT22;35617;50.714;7.114;2022-09-27T15:15:59;14.70;93.80
49729;DHT22;35617;50.714;7.114;2022-09-27T15:20:57;14.80;93.70
49729;DHT22;35617;50.714;7.114;2022-09-27T15:23:34;14.80;93.90
49729;DHT22;35617;50.714;7.114;2022-09-27T15:28:29;14.80;93.70
49729;DHT22;35617;50.714;7.114;2022-09-27T15:30:57;14.70;94.00
49729;DHT22;35617;50.714;7.114;2022-09-27T15:33:25;14.60;93.60
49729;DHT22;35617;50.714;7.114;2022-09-27T15:35:55;14.50;93.50
49729;DHT22;35617;50.714;7.114;2022-09-27T15:38:30;14.30;93.70
49729;DHT22;35617;50.714;7.114;2022-09-27T15:40:59;14.20;94.40
49729;DHT22;35617;50.714;7.114;2022-09-27T15:49:21;12.90;98.70
49729;DHT22;35617;50.714;7.114;2022-09-27T15:51:52;12.50;99.60
49729;DHT22;35617;50.714;7.114;2022-09-27T15:54:23;12.30;99.90
49729;DHT22;35617;50.714;7.114;2022-09-27T15:56:51;12.20;99.90
49729;DHT22;35617;50.714;7.114;2022-09-27T15:59:28;12.10;99.90
49729;DHT22;35617;50.714;7.114;2022-09-27T16:01:57;11.90;99.90
49729;DHT22;35617;50.714;7.114;2022-09-27T16:04:26;11.80;99.90
49729;DHT22;35617;50.714;7.114;2022-09-27T16:06:57;11.70;99.90
49729;DHT22;35617;50.714;7.114;2022-09-27T16:09:25;11.70;99.90
49729;DHT22;35617;50.714;7.114;2022-09-27T16:11:51;11.70;99.90
49729;DHT22;35617;50.714;7.114;2022-09-27T16:14:16;11.70;99.90
49729;DHT22;35617;50.714;7.114;2022-09-27T16:16:44;11.80;99.90
49729;DHT22;35617;50.714;7.114;2022-09-27T16:19:11;11.90;99.90
49729;DHT22;35617;50.714;7.114;2022-09-27T16:21:37;11.90;99.90
49729;DHT22;35617;50.714;7.114;2022-09-27T16:24:03;12.00;99.90
49729;DHT22;35617;50.714;7.114;2022-09-27T16:26:29;12.10;99.90
49729;DHT22;35617;50.714;7.114;2022-09-27T16:28:55;12.10;99.90
49729;DHT22;35617;50.714;7.114;2022-09-27T16:31:20;12.10;99.90
49729;DHT22;35617;50.714;7.114;2022-09-27T16:33:49;12.10;99.90
49729;DHT22;35617;50.714;7.114;2022-09-27T16:36:15;12.20;99.90
49729;DHT22;35617;50.714;7.114;2022-09-27T16:38:50;12.20;99.90
49729;DHT22;35617;50.714;7.114;2022-09-27T16:41:17;12.20;99.90
49729;DHT22;35617;50.714;7.114;2022-09-27T16:43:43;12.20;99.90
49729;DHT22;35617;50.714;7.114;2022-09-27T16:46:10;12.20;99.90
49729;DHT22;35617;50.714;7.114;2022-09-27T16:48:39;12.30;99.90
49729;DHT22;35617;50.714;7.114;2022-09-27T16:51:24;12.20;99.90
49729;DHT22;35617;50.714;7.114;2022-09-27T16:54:09;12.20;99.90
49729;DHT22;35617;50.714;7.114;2022-09-27T16:56:35;12.10;99.90
49729;DHT22;35617;50.714;7.114;2022-09-27T16:59:02;12.10;99.90
49729;DHT22;35617;50.714;7.114;2022-09-27T17:01:29;12.10;99.90
49729;DHT22;35617;50.714;7.114;2022-09-27T17:03:58;12.10;99.90
49729;DHT22;35617;50.714;7.114;2022-09-27T17:06:28;12.10;99.90
49729;DHT22;35617;50.714;7.114;2022-09-27T17:08:56;12.10;99.90
49729;DHT22;35617;50.714;7.114;2022-09-27T17:11:22;12.10;99.90
49729;DHT22;35617;50.714;7.114;2022-09-27T17:13:54;12.00;99.90
49729;DHT22;35617;50.714;7.114;2022-09-27T17:16:22;12.00;99.90
49729;DHT22;35617;50.714;7.114;2022-09-27T17:18:51;11.90;99.90
49729;DHT22;35617;50.714;7.114;2022-09-27T17:21:20;12.00;99.90
49729;DHT22;35617;50.714;7.114;2022-09-27T17:23:46;11.90;99.90
49729;DHT22;35617;50.714;7.114;2022-09-27T17:26:18;11.80;99.90
49729;DHT22;35617;50.714;7.114;2022-09-27T17:28:45;11.80;99.90
49729;DHT22;35617;50.714;7.114;2022-09-27T17:31:12;11.80;99.90
49729;DHT22;35617;50.714;7.114;2022-09-27T17:33:42;11.80;99.90
49729;DHT22;35617;50.714;7.114;2022-09-27T17:36:18;11.80;99.90
49729;DHT22;35617;50.714;7.114;2022-09-27T17:38:45;11.80;99.90
49729;DHT22;35617;50.714;7.114;2022-09-27T17:41:15;11.80;99.90
49729;DHT22;35617;50.714;7.114;2022-09-27T17:43:53;11.80;99.90
49729;DHT22;35617;50.714;7.114;2022-09-27T17:46:22;11.80;99.90
49729;DHT22;35617;50.714;7.114;2022-09-27T17:48:48;11.80;99.90
49729;DHT22;35617;50.714;7.114;2022-09-27T17:51:35;11.80;99.90
49729;DHT22;35617;50.714;7.114;2022-09-27T17:54:06;11.80;99.90
49729;DHT22;35617;50.714;7.114;2022-09-27T17:56:41;11.80;99.90
49729;DHT22;35617;50.714;7.114;2022-09-27T17:59:08;11.80;99.90
49729;DHT22;35617;50.714;7.114;2022-09-27T18:01:38;11.80;99.90
49729;DHT22;35617;50.714;7.114;2022-09-27T18:04:05;11.80;99.90
49729;DHT22;35617;50.714;7.114;2022-09-27T18:06:37;11.80;99.90
49729;DHT22;35617;50.714;7.114;2022-09-27T18:09:10;11.70;99.90
49729;DHT22;35617;50.714;7.114;2022-09-27T18:11:37;11.70;99.90
49729;DHT22;35617;50.714;7.114;2022-09-27T18:14:11;11.70;99.90
49729;DHT22;35617;50.714;7.114;2022-09-27T18:16:42;11.70;99.90
49729;DHT22;35617;50.714;7.114;2022-09-27T18:19:14;11.70;99.90
49729;DHT22;35617;50.714;7.114;2022-09-27T18:21:40;11.80;99.90
49729;DHT22;35617;50.714;7.114;2022-09-27T18:24:15;11.70;99.90
49729;DHT22;35617;50.714;7.114;2022-09-27T18:26:41;11.70;99.90
49729;DHT22;35617;50.714;7.114;2022-09-27T18:29:16;11.70;99.90
49729;DHT22;35617;50.714;7.114;2022-09-27T18:31:42;11.70;99.90
49729;DHT22;35617;50.714;7.114;2022-09-27T18:34:16;11.60;99.90
49729;DHT22;35617;50.714;7.114;2022-09-27T18:36:43;11.70;99.90
49729;DHT22;35617;50.714;7.114;2022-09-27T18:39:11;11.70;99.90